Terminal Aerodrome Forecast
Issued by NWS Jacksonville, FL

Home | Current Version | Previous Version | Text Only | Print | Product List | Glossary On
Versions: 1 2 3 4 5 6 7 8 9 10 11 12 13 14
000
FTUS42 KJAX 301727
TAFGNV
TAF
KGNV 301727Z 3018/3118 27006KT P6SM VCTS SCT050CB SCT250
      TEMPO 3018/3022 4SM -TSRA BKN035CB
     FM310200 VRB03KT P6SM FEW050 SCT250
      TEMPO 3109/3112 4SM BR
     FM311600 29006KT P6SM SCT050 SCT250=

USA.gov is the U.S. government's official web portal to all federal, state and local government web resources and services.